Time;durP1;ratioP1;P1;durP2;ratioP2;P2;SDS_P1;SDS_P2;PMS_P1;PMS_P2;Temp;Humidity;BMP_temperature;BMP_pressure;BME280_temperature;BME280_humidity;BME280_pressure;Samples;Min_cycle;Max_cycle;Signal;HPM_P1;HPM_P2
2024/01/26 00:01:47;;;;;;;12.60;7.93;;;21.70;99.90;;;;;;5075081;28;20754;-52
2024/01/26 00:04:13;;;;;;;14.27;7.53;;;21.70;99.90;;;;;;5056108;28;21198;-51
2024/01/26 00:06:40;;;;;;;11.32;6.90;;;21.60;99.90;;;;;;5053180;28;20085;-54
2024/01/26 00:09:13;;;;;;;15.77;8.15;;;21.50;99.90;;;;;;5073792;28;20540;-50
2024/01/26 00:11:41;;;;;;;13.32;7.38;;;21.50;99.90;;;;;;5056586;28;20077;-52
2024/01/26 00:14:08;;;;;;;13.98;7.75;;;21.50;99.90;;;;;;5068218;28;20730;-52
2024/01/26 00:16:37;;;;;;;12.15;7.70;;;21.80;99.90;;;;;;5069668;28;20576;-53
2024/01/26 00:19:06;;;;;;;12.55;7.22;;;21.50;99.90;;;;;;5052231;28;20180;-57
2024/01/26 00:21:33;;;;;;;10.60;6.13;;;21.30;99.90;;;;;;5076554;28;20177;-51
2024/01/26 00:23:59;;;;;;;13.55;5.88;;;21.00;99.90;;;;;;5054019;28;20570;-52
2024/01/26 00:26:26;;;;;;;17.25;6.63;;;21.00;99.90;;;;;;5055052;28;20084;-53
2024/01/26 00:28:52;;;;;;;10.35;6.05;;;21.10;99.90;;;;;;5071770;28;20541;-57
2024/01/26 00:31:19;;;;;;;16.38;6.70;;;21.20;99.90;;;;;;5055764;28;20217;-53
2024/01/26 00:33:46;;;;;;;17.83;8.82;;;21.10;99.90;;;;;;5056489;28;20099;-51
2024/01/26 00:36:14;;;;;;;20.60;9.73;;;20.70;99.90;;;;;;5050036;28;20077;-52
2024/01/26 00:38:41;;;;;;;17.08;10.40;;;20.50;99.90;;;;;;5076669;28;20830;-48
2024/01/26 00:41:08;;;;;;;18.20;10.88;;;20.40;99.90;;;;;;5054575;28;20079;-55
2024/01/26 00:43:34;;;;;;;16.20;12.23;;;20.30;99.90;;;;;;5074729;28;20076;-54
2024/01/26 00:46:01;;;;;;;16.45;12.00;;;20.20;99.90;;;;;;5074342;28;20068;-59
2024/01/26 00:48:28;;;;;;;19.50;12.35;;;19.90;99.90;;;;;;5054613;28;20122;-54
2024/01/26 00:50:54;;;;;;;19.98;12.98;;;19.80;99.90;;;;;;5037466;28;20129;-51
2024/01/26 00:53:23;;;;;;;18.40;13.35;;;19.70;99.90;;;;;;5054970;28;20111;-52
2024/01/26 00:55:50;;;;;;;22.52;13.15;;;19.50;99.90;;;;;;5051000;28;20085;-57
2024/01/26 00:58:17;;;;;;;18.38;13.88;;;19.50;99.90;;;;;;5055949;28;20100;-53
2024/01/26 01:00:44;;;;;;;23.13;13.95;;;19.40;99.90;;;;;;5054373;28;20069;-55
2024/01/26 01:03:10;;;;;;;22.58;15.68;;;19.30;99.90;;;;;;5072929;28;20100;-54
2024/01/26 01:05:37;;;;;;;20.73;15.93;;;19.20;99.90;;;;;;5072976;28;20098;-53
2024/01/26 01:08:04;;;;;;;41.58;18.38;;;19.10;99.90;;;;;;5052384;28;20073;-54
2024/01/26 01:10:31;;;;;;;26.15;15.80;;;19.00;99.90;;;;;;5055720;28;20077;-50
2024/01/26 01:12:57;;;;;;;31.70;16.13;;;18.90;99.90;;;;;;5052077;28;20117;-51
2024/01/26 01:15:24;;;;;;;32.00;16.58;;;18.90;99.90;;;;;;5059060;28;20134;-50
2024/01/26 01:17:50;;;;;;;32.53;16.27;;;18.90;99.90;;;;;;5049489;28;20075;-56
2024/01/26 01:20:17;;;;;;;31.77;16.48;;;18.80;99.90;;;;;;5067168;28;20432;-50
2024/01/26 01:22:44;;;;;;;29.15;15.95;;;18.70;99.90;;;;;;5068944;28;20162;-49
2024/01/26 01:25:14;;;;;;;38.80;15.98;;;18.50;99.90;;;;;;5055580;28;20077;-53
2024/01/26 01:27:41;;;;;;;31.80;15.25;;;18.40;99.90;;;;;;5058383;28;20536;-53
2024/01/26 01:30:11;;;;;;;34.20;16.95;;;18.30;99.90;;;;;;5070586;28;20129;-52
2024/01/26 01:32:38;;;;;;;48.95;18.05;;;18.10;99.90;;;;;;5074514;28;20069;-54
2024/01/26 01:35:05;;;;;;;43.30;17.52;;;18.10;99.90;;;;;;5075380;28;20161;-53
2024/01/26 01:37:32;;;;;;;49.25;21.13;;;18.00;99.90;;;;;;5074853;28;20077;-53
2024/01/26 01:39:59;;;;;;;58.55;19.15;;;17.90;99.90;;;;;;5075640;28;20069;-56
2024/01/26 01:42:25;;;;;;;34.22;17.27;;;17.90;99.90;;;;;;5057030;28;20184;-54
2024/01/26 01:44:52;;;;;;;33.55;16.85;;;17.90;99.90;;;;;;5056601;28;20068;-56
2024/01/26 01:47:20;;;;;;;33.40;18.40;;;17.80;99.90;;;;;;5074908;28;20109;-52
2024/01/26 01:49:46;;;;;;;32.10;18.33;;;17.70;99.90;;;;;;5058353;28;20072;-51
2024/01/26 01:52:18;;;;;;;36.13;19.30;;;17.50;99.90;;;;;;5077645;28;20191;-51
2024/01/26 01:54:45;;;;;;;47.80;24.55;;;17.50;99.90;;;;;;5058038;28;20076;-52
2024/01/26 01:57:13;;;;;;;55.63;23.70;;;17.40;99.90;;;;;;5080114;28;20084;-52
2024/01/26 01:59:41;;;;;;;51.03;21.90;;;17.40;99.90;;;;;;5060251;28;20073;-47
2024/01/26 02:02:08;;;;;;;38.47;20.50;;;17.30;99.90;;;;;;5074554;28;20112;-46
2024/01/26 02:04:35;;;;;;;49.33;19.63;;;17.20;99.90;;;;;;5077632;28;20077;-43
2024/01/26 02:07:04;;;;;;;47.63;20.65;;;17.20;99.90;;;;;;5058827;28;20229;-45
2024/01/26 02:09:31;;;;;;;47.08;19.55;;;17.10;99.90;;;;;;5071167;28;20882;-43
2024/01/26 02:11:59;;;;;;;44.33;19.83;;;16.90;99.90;;;;;;5048788;28;20070;-46
2024/01/26 02:14:26;;;;;;;44.90;20.13;;;16.90;99.90;;;;;;5052849;28;20081;-45
2024/01/26 02:17:00;;;;;;;52.00;20.60;;;16.90;99.90;;;;;;5052500;28;20084;-46
2024/01/26 02:19:27;;;;;;;53.08;21.90;;;16.80;99.90;;;;;;5052072;28;20198;-48
2024/01/26 02:21:54;;;;;;;55.28;24.35;;;16.80;99.90;;;;;;5051292;28;20101;-47
2024/01/26 02:24:21;;;;;;;65.93;22.77;;;16.80;99.90;;;;;;5056734;28;20110;-55
2024/01/26 02:26:48;;;;;;;55.30;22.67;;;16.80;99.90;;;;;;5054888;28;20503;-48
2024/01/26 02:29:14;;;;;;;69.57;29.52;;;16.80;99.90;;;;;;5056116;28;20135;-47
2024/01/26 02:31:41;;;;;;;72.32;36.00;;;16.70;99.90;;;;;;5055462;28;20602;-42
2024/01/26 02:34:10;;;;;;;80.90;28.80;;;16.60;99.90;;;;;;5053839;28;20081;-46
2024/01/26 02:36:40;;;;;;;59.80;25.85;;;16.50;99.90;;;;;;5073904;28;20077;-49
2024/01/26 02:39:06;;;;;;;70.47;25.63;;;16.50;99.90;;;;;;5076456;28;20652;-45
2024/01/26 02:41:35;;;;;;;59.90;25.38;;;16.50;99.90;;;;;;5059085;28;20481;-45
2024/01/26 02:44:02;;;;;;;73.80;27.40;;;16.50;99.90;;;;;;5058363;28;20112;-46
2024/01/26 02:46:29;;;;;;;67.00;26.40;;;16.40;99.90;;;;;;5053426;28;20533;-45
2024/01/26 02:48:56;;;;;;;67.65;24.38;;;16.30;99.90;;;;;;5071836;28;20065;-50
2024/01/26 02:51:22;;;;;;;66.43;26.45;;;16.30;99.90;;;;;;5072618;28;20128;-45
2024/01/26 02:53:49;;;;;;;74.05;26.85;;;16.30;99.90;;;;;;5057782;28;20461;-48
2024/01/26 02:56:16;;;;;;;71.90;27.58;;;16.30;99.90;;;;;;5071969;28;20080;-44
2024/01/26 02:58:42;;;;;;;83.72;27.45;;;16.20;99.90;;;;;;5075061;28;20080;-47
2024/01/26 03:01:09;;;;;;;63.90;27.70;;;16.20;99.90;;;;;;5074294;28;20085;-46
2024/01/26 03:03:35;;;;;;;62.95;26.80;;;16.10;99.90;;;;;;5070564;28;20585;-45
2024/01/26 03:06:02;;;;;;;72.32;26.55;;;16.00;99.90;;;;;;5057163;28;20524;-44
2024/01/26 03:08:28;;;;;;;68.63;31.70;;;16.00;99.90;;;;;;5048975;28;20537;-54
2024/01/26 03:10:55;;;;;;;61.53;27.50;;;16.00;99.90;;;;;;5055331;28;20129;-44
2024/01/26 03:13:21;;;;;;;109.68;27.52;;;16.00;99.90;;;;;;5076837;28;20578;-56
2024/01/26 03:15:50;;;;;;;75.32;27.17;;;16.00;99.90;;;;;;5069589;28;20076;-47
2024/01/26 03:18:17;;;;;;;84.75;28.63;;;16.00;99.90;;;;;;5056341;28;20533;-47
2024/01/26 03:20:44;;;;;;;68.22;27.92;;;15.90;99.90;;;;;;5072085;28;20077;-49
2024/01/26 03:23:11;;;;;;;67.85;27.70;;;15.80;99.90;;;;;;5073451;28;20104;-55
2024/01/26 03:25:38;;;;;;;81.10;30.20;;;15.70;99.90;;;;;;5052063;28;20079;-48
2024/01/26 03:28:06;;;;;;;78.55;28.77;;;15.70;99.90;;;;;;5075082;28;20495;-47
2024/01/26 03:30:33;;;;;;;91.78;28.65;;;15.70;99.90;;;;;;5073145;28;20073;-44
2024/01/26 03:33:00;;;;;;;84.30;29.70;;;15.70;99.90;;;;;;5055271;28;20069;-51
2024/01/26 03:35:27;;;;;;;84.30;29.60;;;15.70;99.90;;;;;;5075317;28;20069;-50
2024/01/26 03:37:53;;;;;;;85.32;31.77;;;15.70;99.90;;;;;;5056372;28;20101;-46
2024/01/26 03:40:21;;;;;;;77.05;32.85;;;15.60;99.90;;;;;;5054721;28;20087;-50
2024/01/26 03:42:47;;;;;;;101.43;36.38;;;15.60;99.90;;;;;;5076959;28;20112;-53
2024/01/26 03:45:14;;;;;;;88.93;31.85;;;15.60;99.90;;;;;;5056486;28;20967;-44
2024/01/26 03:47:40;;;;;;;84.07;33.20;;;15.60;99.90;;;;;;5055939;28;20069;-45
2024/01/26 03:50:07;;;;;;;95.82;34.58;;;15.60;99.90;;;;;;5075526;28;20171;-46
2024/01/26 03:52:34;;;;;;;73.25;31.50;;;15.60;99.90;;;;;;5051270;28;20629;-48
2024/01/26 03:55:01;;;;;;;99.88;33.20;;;15.50;99.90;;;;;;5049356;28;20077;-47
2024/01/26 03:57:28;;;;;;;87.60;33.65;;;15.50;99.90;;;;;;5052716;28;20077;-50
2024/01/26 03:59:54;;;;;;;85.03;34.28;;;15.50;99.90;;;;;;5050579;28;20085;-49
2024/01/26 04:02:21;;;;;;;101.32;36.08;;;15.50;99.90;;;;;;5052657;28;20789;-55
2024/01/26 04:04:47;;;;;;;106.72;35.83;;;15.50;99.90;;;;;;5050413;28;20093;-47
2024/01/26 04:07:14;;;;;;;93.80;35.38;;;15.40;99.90;;;;;;5053480;28;20077;-50
2024/01/26 04:09:40;;;;;;;98.88;35.95;;;15.40;99.90;;;;;;5048100;28;20088;-53
2024/01/26 04:12:07;;;;;;;94.47;36.58;;;15.40;99.90;;;;;;5049091;28;20128;-49
2024/01/26 04:14:34;;;;;;;108.43;38.92;;;15.40;99.90;;;;;;5051588;28;20162;-56
2024/01/26 04:17:00;;;;;;;94.07;37.95;;;15.40;99.90;;;;;;5052578;28;20103;-50
2024/01/26 04:19:27;;;;;;;80.70;36.25;;;15.30;99.90;;;;;;5052040;28;20184;-50
2024/01/26 04:21:53;;;;;;;81.68;37.90;;;15.30;99.90;;;;;;5052679;28;20175;-47
2024/01/26 04:24:20;;;;;;;88.60;38.35;;;15.30;99.90;;;;;;5054304;28;20525;-49
2024/01/26 04:26:46;;;;;;;87.75;40.10;;;15.20;99.90;;;;;;5053232;28;20080;-50
2024/01/26 04:29:13;;;;;;;88.35;40.22;;;15.10;99.90;;;;;;5052221;28;20200;-45
2024/01/26 04:31:43;;;;;;;105.95;42.03;;;15.10;99.90;;;;;;5053175;28;20521;-48
2024/01/26 04:34:10;;;;;;;85.60;39.25;;;15.10;99.90;;;;;;5050116;28;20122;-46
2024/01/26 04:36:36;;;;;;;85.05;39.22;;;15.10;99.90;;;;;;5051349;28;21704;-49
2024/01/26 04:39:03;;;;;;;95.85;40.30;;;15.10;99.90;;;;;;5055398;28;20088;-46
2024/01/26 04:41:30;;;;;;;88.18;39.15;;;15.10;99.90;;;;;;5051715;28;20190;-48
2024/01/26 04:43:56;;;;;;;81.53;38.78;;;15.00;99.90;;;;;;5051471;28;20086;-51
2024/01/26 04:46:23;;;;;;;90.13;38.28;;;15.00;99.90;;;;;;5049153;28;20538;-49
2024/01/26 04:48:49;;;;;;;88.45;40.25;;;15.00;99.90;;;;;;5048107;28;20084;-50
2024/01/26 04:51:16;;;;;;;79.07;38.33;;;15.00;99.90;;;;;;5056902;28;20160;-49
2024/01/26 04:53:42;;;;;;;77.47;38.90;;;15.00;99.90;;;;;;5076814;28;20077;-46
2024/01/26 04:56:12;;;;;;;62.03;36.38;;;14.90;99.90;;;;;;5051505;28;20108;-44
2024/01/26 04:58:39;;;;;;;75.85;37.75;;;14.90;99.90;;;;;;5053801;28;20158;-45
2024/01/26 05:01:06;;;;;;;86.57;38.35;;;14.80;99.90;;;;;;5054622;28;20076;-49
2024/01/26 05:03:33;;;;;;;80.22;38.03;;;14.80;99.90;;;;;;5067804;28;20084;-49
2024/01/26 05:06:00;;;;;;;77.50;37.65;;;14.80;99.90;;;;;;5055194;28;20073;-49
2024/01/26 05:08:27;;;;;;;74.05;39.88;;;14.70;99.90;;;;;;5054587;28;20942;-48
2024/01/26 05:10:53;;;;;;;94.70;40.00;;;14.70;99.90;;;;;;5054687;28;20535;-49
2024/01/26 05:13:20;;;;;;;92.82;40.78;;;14.70;99.90;;;;;;5071597;28;20106;-47
2024/01/26 05:15:46;;;;;;;96.28;40.65;;;14.60;99.90;;;;;;5073477;28;20069;-48
2024/01/26 05:18:13;;;;;;;78.90;42.05;;;14.60;99.90;;;;;;5073986;28;20065;-45
2024/01/26 05:20:40;;;;;;;87.63;42.42;;;14.50;99.90;;;;;;5058348;28;21260;-45
2024/01/26 05:23:07;;;;;;;94.22;42.50;;;14.60;99.90;;;;;;5071810;28;20192;-47
2024/01/26 05:25:33;;;;;;;87.72;45.10;;;14.50;99.90;;;;;;5076004;28;20508;-46
2024/01/26 05:27:59;;;;;;;90.35;46.85;;;14.50;99.90;;;;;;5058224;28;20575;-48
2024/01/26 05:30:26;;;;;;;81.88;42.15;;;14.50;99.90;;;;;;5073407;28;20069;-53
2024/01/26 05:32:53;;;;;;;96.20;48.75;;;14.40;99.90;;;;;;5058692;28;20084;-49
2024/01/26 05:35:20;;;;;;;115.50;51.50;;;14.30;99.90;;;;;;5080078;28;20439;-50
2024/01/26 05:37:46;;;;;;;94.82;49.13;;;14.40;99.90;;;;;;5077365;28;20080;-45
2024/01/26 05:40:14;;;;;;;122.95;51.00;;;14.30;99.90;;;;;;5077009;28;20064;-53
2024/01/26 05:42:40;;;;;;;102.35;52.47;;;14.30;99.90;;;;;;5055055;28;20449;-46
2024/01/26 05:45:08;;;;;;;107.05;56.83;;;14.20;99.90;;;;;;5077003;28;20490;-53
2024/01/26 05:47:35;;;;;;;114.10;60.80;;;14.20;99.90;;;;;;5054430;28;20169;-46
2024/01/26 05:50:02;;;;;;;132.25;65.82;;;14.10;99.90;;;;;;5061084;28;20081;-55
2024/01/26 05:52:28;;;;;;;147.13;68.10;;;14.10;99.90;;;;;;5073524;28;20196;-48
2024/01/26 05:54:55;;;;;;;138.02;70.35;;;14.10;99.90;;;;;;5058102;28;20081;-55
2024/01/26 05:57:22;;;;;;;142.13;70.82;;;14.10;99.90;;;;;;5073683;28;20474;-49
2024/01/26 05:59:49;;;;;;;136.70;70.60;;;14.00;99.90;;;;;;5057318;28;20125;-45
2024/01/26 06:02:15;;;;;;;151.13;72.18;;;14.00;99.90;;;;;;5056098;28;20100;-51
2024/01/26 06:04:42;;;;;;;151.10;69.32;;;14.00;99.90;;;;;;5077757;28;20135;-47
2024/01/26 06:07:08;;;;;;;139.93;71.78;;;14.00;99.90;;;;;;5054797;28;20105;-49
2024/01/26 06:09:35;;;;;;;159.82;76.38;;;13.90;99.90;;;;;;5076185;28;20476;-51
2024/01/26 06:12:01;;;;;;;157.85;74.72;;;14.00;99.90;;;;;;5058436;28;20108;-54
2024/01/26 06:14:27;;;;;;;137.75;72.97;;;13.90;99.90;;;;;;5058011;28;20119;-50
2024/01/26 06:16:54;;;;;;;134.00;74.53;;;13.90;99.90;;;;;;5060310;28;20076;-47
2024/01/26 06:19:20;;;;;;;137.13;71.25;;;13.90;99.90;;;;;;5055951;28;20072;-56
2024/01/26 06:21:47;;;;;;;135.55;72.45;;;13.80;99.90;;;;;;5058934;28;20100;-50
2024/01/26 06:24:13;;;;;;;138.43;74.80;;;13.80;99.90;;;;;;5057222;28;20084;-46
2024/01/26 06:26:40;;;;;;;140.23;69.47;;;13.80;99.90;;;;;;5070497;28;20069;-50
2024/01/26 06:29:06;;;;;;;148.05;74.03;;;13.70;99.90;;;;;;5055631;28;20524;-50
2024/01/26 06:31:33;;;;;;;132.77;69.32;;;13.70;99.90;;;;;;5057694;28;20086;-53
2024/01/26 06:33:59;;;;;;;129.05;72.88;;;13.70;99.90;;;;;;5056106;28;20089;-47
2024/01/26 06:36:26;;;;;;;122.72;68.35;;;13.60;99.90;;;;;;5077798;28;20073;-47
2024/01/26 06:38:52;;;;;;;131.10;70.22;;;13.60;99.90;;;;;;5056038;28;20077;-54
2024/01/26 06:41:19;;;;;;;133.85;69.97;;;13.50;99.90;;;;;;5055642;28;20096;-49
2024/01/26 06:43:51;;;;;;;127.65;74.50;;;13.50;99.90;;;;;;5077759;28;20433;-47
2024/01/26 06:46:22;;;;;;;143.27;78.65;;;13.50;99.90;;;;;;5056697;28;20122;-49
2024/01/26 06:48:49;;;;;;;126.88;70.53;;;13.40;99.90;;;;;;5074207;28;20533;-52
2024/01/26 06:51:16;;;;;;;133.57;67.93;;;13.40;99.90;;;;;;5074226;28;21857;-49
2024/01/26 06:53:43;;;;;;;137.63;66.97;;;13.30;99.90;;;;;;5072843;28;20127;-46
2024/01/26 06:56:09;;;;;;;120.95;65.70;;;13.30;99.90;;;;;;5056378;28;20092;-51
2024/01/26 06:58:36;;;;;;;116.38;64.80;;;13.40;99.90;;;;;;5076226;28;20080;-46
2024/01/26 07:01:02;;;;;;;117.63;67.07;;;13.40;99.90;;;;;;5071729;28;20818;-44
2024/01/26 07:03:29;;;;;;;126.60;71.38;;;13.40;99.90;;;;;;5055420;28;20115;-46
2024/01/26 07:05:55;;;;;;;126.20;83.28;;;13.30;99.90;;;;;;5072216;28;20073;-50
2024/01/26 07:08:22;;;;;;;133.57;68.13;;;13.30;99.90;;;;;;5056316;28;20077;-46
2024/01/26 07:10:48;;;;;;;122.55;67.32;;;13.30;99.90;;;;;;5056885;28;20164;-50
2024/01/26 07:13:15;;;;;;;112.03;65.97;;;13.30;99.90;;;;;;5055512;28;20175;-49
2024/01/26 07:15:41;;;;;;;118.88;66.30;;;13.30;99.90;;;;;;5057933;28;20589;-45
2024/01/26 07:18:08;;;;;;;132.13;69.03;;;13.30;99.90;;;;;;5077725;28;20069;-44
2024/01/26 07:20:34;;;;;;;115.43;62.67;;;13.20;99.90;;;;;;5049471;28;20090;-46
2024/01/26 07:23:01;;;;;;;116.82;65.20;;;13.10;99.90;;;;;;5058770;28;20113;-50
2024/01/26 07:25:27;;;;;;;94.53;60.15;;;13.10;99.90;;;;;;5071967;28;20603;-43
2024/01/26 07:27:54;;;;;;;104.05;61.35;;;13.10;99.90;;;;;;5055568;28;20212;-46
2024/01/26 07:30:20;;;;;;;112.40;58.63;;;13.10;99.90;;;;;;5073444;28;20183;-49
2024/01/26 07:32:47;;;;;;;104.45;59.38;;;13.10;99.90;;;;;;5078103;28;20076;-51
2024/01/26 07:35:13;;;;;;;98.30;59.92;;;13.10;99.90;;;;;;5075097;28;20877;-52
2024/01/26 07:37:40;;;;;;;104.28;61.15;;;13.10;99.90;;;;;;5074257;28;20085;-49
2024/01/26 07:40:08;;;;;;;97.40;59.75;;;13.10;99.90;;;;;;5072179;28;20113;-47
2024/01/26 07:42:35;;;;;;;97.63;58.53;;;13.00;99.90;;;;;;5076294;28;20123;-52
2024/01/26 07:45:01;;;;;;;106.32;61.17;;;13.00;99.90;;;;;;5057509;28;20591;-45
2024/01/26 07:47:28;;;;;;;105.28;65.68;;;13.00;99.90;;;;;;5071022;28;20073;-46
2024/01/26 07:49:54;;;;;;;100.25;66.25;;;13.00;99.90;;;;;;5071535;28;20180;-46
2024/01/26 07:52:21;;;;;;;108.38;67.20;;;13.00;99.90;;;;;;5072007;28;20116;-45
2024/01/26 07:54:48;;;;;;;104.40;64.97;;;13.00;99.90;;;;;;5071229;28;20068;-52
2024/01/26 07:57:15;;;;;;;109.00;63.55;;;13.10;99.90;;;;;;5077612;28;20435;-44
2024/01/26 07:59:41;;;;;;;94.07;58.17;;;13.10;99.90;;;;;;5073833;28;20084;-54
2024/01/26 08:02:08;;;;;;;86.70;56.33;;;13.20;99.90;;;;;;5072149;28;20200;-45
2024/01/26 08:04:34;;;;;;;95.88;59.88;;;13.10;99.90;;;;;;5075106;28;20112;-51
2024/01/26 08:07:00;;;;;;;;;;;13.10;99.90;;;;;;5070884;28;20561;-48
2024/01/26 08:09:27;;;;;;;90.32;58.45;;;13.20;99.90;;;;;;5070441;28;19961;-47
2024/01/26 08:11:53;;;;;;;89.60;58.95;;;13.10;99.90;;;;;;5074661;28;20077;-46
2024/01/26 08:14:20;;;;;;;90.18;57.25;;;13.10;99.90;;;;;;5072183;28;20511;-51
2024/01/26 08:16:46;;;;;;;;;;;13.10;99.90;;;;;;5071488;28;20160;-49
2024/01/26 08:19:12;;;;;;;88.93;57.20;;;13.10;99.90;;;;;;5070315;28;19957;-49
2024/01/26 08:21:39;;;;;;;78.18;51.10;;;13.00;99.90;;;;;;5077061;28;20147;-46
2024/01/26 08:24:06;;;;;;;74.25;52.22;;;13.00;99.90;;;;;;5070009;28;20072;-46
2024/01/26 08:26:33;;;;;;;76.78;50.67;;;13.10;99.90;;;;;;5075774;28;20069;-49
2024/01/26 08:29:01;;;;;;;72.35;47.63;;;13.00;99.90;;;;;;5070601;28;20076;-48
2024/01/26 08:31:29;;;;;;;70.85;45.65;;;13.10;99.90;;;;;;5071202;28;20521;-48
2024/01/26 08:33:55;;;;;;;70.15;45.17;;;13.00;99.90;;;;;;5073169;28;20692;-44
2024/01/26 08:36:22;;;;;;;65.95;44.03;;;13.00;99.90;;;;;;5072957;28;20073;-49
2024/01/26 08:38:50;;;;;;;58.63;41.05;;;12.90;99.90;;;;;;5070528;28;20126;-44
2024/01/26 08:41:17;;;;;;;62.97;41.10;;;12.90;99.90;;;;;;5073562;28;20449;-48
2024/01/26 08:43:43;;;;;;;69.72;41.13;;;12.90;99.90;;;;;;5071805;28;20184;-46
2024/01/26 08:46:10;;;;;;;68.30;44.75;;;12.90;99.90;;;;;;5073708;28;20163;-47
2024/01/26 08:48:37;;;;;;;58.90;43.85;;;12.90;99.90;;;;;;5072618;28;20084;-50
2024/01/26 08:51:03;;;;;;;70.40;45.67;;;12.90;99.90;;;;;;5072216;28;20088;-48
2024/01/26 08:53:30;;;;;;;65.38;47.97;;;12.90;99.90;;;;;;5074588;28;20077;-49
2024/01/26 08:55:56;;;;;;;70.82;49.47;;;12.90;99.90;;;;;;5071970;28;20439;-55
2024/01/26 08:58:22;;;;;;;67.47;50.33;;;12.90;99.90;;;;;;5072643;28;20508;-50
2024/01/26 09:00:49;;;;;;;65.68;49.25;;;12.80;99.90;;;;;;5069908;28;20081;-48
2024/01/26 09:03:16;;;;;;;68.72;46.20;;;12.70;99.90;;;;;;5067989;28;20521;-52
2024/01/26 09:05:42;;;;;;;71.22;48.72;;;12.80;99.90;;;;;;5070279;28;20077;-56
2024/01/26 09:08:09;;;;;;;63.17;45.05;;;13.40;99.90;;;;;;5069635;28;20605;-56
2024/01/26 09:10:35;;;;;;;61.38;45.15;;;13.50;99.90;;;;;;5073491;28;20107;-53
2024/01/26 09:13:02;;;;;;;62.20;47.15;;;13.70;99.90;;;;;;5070773;28;20123;-53
2024/01/26 09:15:28;;;;;;;66.75;46.55;;;14.00;99.90;;;;;;5072854;28;20114;-52
2024/01/26 09:17:55;;;;;;;61.05;47.00;;;14.00;99.90;;;;;;5050911;28;20072;-48
2024/01/26 09:20:21;;;;;;;66.05;46.80;;;14.00;99.90;;;;;;5074170;28;20505;-50
2024/01/26 09:22:48;;;;;;;60.78;43.60;;;13.80;99.90;;;;;;5073632;28;20572;-50
2024/01/26 09:25:14;;;;;;;60.58;45.17;;;13.90;99.90;;;;;;5072105;28;20490;-52
2024/01/26 09:27:41;;;;;;;60.30;43.95;;;14.00;99.90;;;;;;5054786;28;20072;-51
2024/01/26 09:30:08;;;;;;;58.17;42.03;;;13.90;99.90;;;;;;5051416;28;20079;-53
2024/01/26 09:32:35;;;;;;;61.22;40.50;;;13.80;99.90;;;;;;5068359;28;20124;-52
2024/01/26 09:35:06;;;;;;;56.72;40.78;;;13.90;99.90;;;;;;5071650;28;20072;-54
2024/01/26 09:37:33;;;;;;;50.13;30.88;;;13.80;99.90;;;;;;5072190;28;20156;-50
2024/01/26 09:39:59;;;;;;;40.95;25.42;;;13.80;99.90;;;;;;5070941;28;20520;-53
2024/01/26 09:42:26;;;;;;;31.98;22.20;;;13.70;99.90;;;;;;5073555;28;20575;-51
2024/01/26 09:44:52;;;;;;;30.25;18.45;;;13.80;99.90;;;;;;5069556;28;20604;-54
2024/01/26 09:47:19;;;;;;;25.40;18.02;;;13.90;99.90;;;;;;5065518;28;20086;-57
2024/01/26 09:49:56;;;;;;;23.23;15.77;;;13.80;99.90;;;;;;5066192;28;20073;-49
2024/01/26 09:52:23;;;;;;;20.20;13.98;;;13.80;99.90;;;;;;5069337;28;20189;-51
2024/01/26 09:54:51;;;;;;;15.50;11.95;;;13.90;99.90;;;;;;5069770;28;20568;-53
2024/01/26 09:57:21;;;;;;;18.70;11.30;;;13.90;99.90;;;;;;5075023;28;20077;-51
2024/01/26 09:59:50;;;;;;;15.95;10.63;;;14.00;99.90;;;;;;5073290;28;20079;-52
2024/01/26 10:02:18;;;;;;;13.80;10.02;;;14.10;99.90;;;;;;5069191;28;20154;-53
2024/01/26 10:04:45;;;;;;;10.30;6.65;;;14.10;99.90;;;;;;5069644;28;20452;-52
2024/01/26 10:07:11;;;;;;;9.73;6.88;;;14.00;99.90;;;;;;5074240;28;20452;-50
2024/01/26 10:09:38;;;;;;;14.98;5.95;;;14.00;99.90;;;;;;5077982;28;20433;-49
2024/01/26 10:12:05;;;;;;;9.43;5.65;;;14.00;99.90;;;;;;5075813;28;20452;-50
2024/01/26 10:14:31;;;;;;;9.95;5.72;;;14.10;99.90;;;;;;5077673;28;20068;-50
2024/01/26 10:16:59;;;;;;;10.45;6.30;;;14.10;99.90;;;;;;5077001;28;20072;-54
2024/01/26 10:19:26;;;;;;;8.45;6.03;;;14.10;99.90;;;;;;5054511;28;20073;-49
2024/01/26 10:21:54;;;;;;;9.75;6.60;;;14.10;99.90;;;;;;5072721;28;20109;-54
2024/01/26 10:24:25;;;;;;;9.82;6.65;;;14.10;99.90;;;;;;5074035;28;20092;-48
2024/01/26 10:26:55;;;;;;;17.75;7.63;;;14.10;99.90;;;;;;5073283;28;20479;-54
2024/01/26 10:29:24;;;;;;;10.27;6.78;;;14.20;99.90;;;;;;5078201;28;20080;-49
2024/01/26 10:31:52;;;;;;;7.93;6.07;;;14.10;99.90;;;;;;5073534;28;20503;-48
2024/01/26 10:34:19;;;;;;;8.75;5.68;;;14.00;99.90;;;;;;5078528;28;20087;-50
2024/01/26 10:36:47;;;;;;;8.18;4.97;;;13.90;99.90;;;;;;5071707;28;20069;-49
2024/01/26 10:39:17;;;;;;;6.85;4.85;;;13.70;99.90;;;;;;5057599;28;20084;-47
2024/01/26 10:41:48;;;;;;;8.63;5.30;;;13.60;99.90;;;;;;5076056;28;20112;-48
2024/01/26 10:44:16;;;;;;;8.90;5.32;;;13.60;99.90;;;;;;5076107;28;20083;-47
2024/01/26 10:46:43;;;;;;;6.57;5.40;;;13.60;99.90;;;;;;5074956;28;20566;-46
2024/01/26 10:49:11;;;;;;;6.95;4.95;;;13.70;99.90;;;;;;5075317;28;20076;-55
2024/01/26 10:51:38;;;;;;;7.85;4.80;;;13.70;99.90;;;;;;5073608;28;20582;-48
2024/01/26 10:54:14;;;;;;;9.27;4.70;;;13.70;99.90;;;;;;5055200;28;20074;-52
2024/01/26 10:56:41;;;;;;;6.78;5.30;;;13.60;99.90;;;;;;5057131;28;20163;-52
2024/01/26 10:59:10;;;;;;;8.32;5.22;;;13.60;99.90;;;;;;5076500;28;20080;-51
2024/01/26 11:01:39;;;;;;;5.95;5.35;;;13.50;99.90;;;;;;5076086;28;20531;-54
2024/01/26 11:04:11;;;;;;;9.18;5.75;;;13.50;99.90;;;;;;5072299;28;20081;-52
2024/01/26 11:06:39;;;;;;;9.95;6.78;;;13.40;99.90;;;;;;5072680;28;20092;-52
2024/01/26 11:09:09;;;;;;;11.23;6.68;;;13.40;99.90;;;;;;5075526;28;20207;-51
2024/01/26 11:11:40;;;;;;;13.10;7.68;;;13.20;99.90;;;;;;5073356;28;20082;-52
2024/01/26 11:14:06;;;;;;;21.38;8.77;;;13.10;99.90;;;;;;5076650;28;20160;-53
2024/01/26 11:16:41;;;;;;;15.55;9.65;;;13.00;99.90;;;;;;5073244;28;20130;-52
2024/01/26 11:19:08;;;;;;;13.93;9.07;;;13.00;99.90;;;;;;5074899;28;20073;-48
2024/01/26 11:21:46;;;;;;;12.75;9.40;;;13.00;99.90;;;;;;5075292;28;20537;-49
2024/01/26 11:24:20;;;;;;;16.17;9.65;;;13.00;99.90;;;;;;5075073;28;20068;-56
2024/01/26 11:26:58;;;;;;;15.23;9.57;;;13.00;99.90;;;;;;5074972;28;20096;-50
2024/01/26 11:29:32;;;;;;;14.43;9.55;;;13.20;99.90;;;;;;5073197;28;20077;-55
2024/01/26 11:31:59;;;;;;;13.23;9.40;;;13.20;99.90;;;;;;5073174;28;20084;-48
2024/01/26 11:34:26;;;;;;;16.23;9.65;;;13.20;99.90;;;;;;5076478;28;20558;-58
2024/01/26 11:37:13;;;;;;;15.75;12.00;;;13.10;99.90;;;;;;5071753;28;20234;-51
2024/01/26 11:39:40;;;;;;;15.32;10.20;;;13.00;99.90;;;;;;5071039;28;20084;-52
2024/01/26 11:42:11;;;;;;;16.67;10.48;;;12.80;99.90;;;;;;5072409;28;20111;-52
2024/01/26 11:44:41;;;;;;;20.10;10.95;;;12.70;99.90;;;;;;5068771;28;20080;-54
2024/01/26 11:47:12;;;;;;;20.85;11.30;;;12.50;99.90;;;;;;5069426;28;20753;-50
2024/01/26 11:49:40;;;;;;;15.18;10.35;;;12.40;99.90;;;;;;5073326;28;20084;-48
2024/01/26 11:52:07;;;;;;;15.43;10.68;;;12.40;99.90;;;;;;5070112;28;20195;-53
2024/01/26 11:54:33;;;;;;;15.05;10.50;;;12.40;99.90;;;;;;5072211;28;20080;-50
2024/01/26 11:57:02;;;;;;;18.48;10.60;;;12.20;99.90;;;;;;5074125;28;20077;-51
2024/01/26 11:59:29;;;;;;;15.73;10.00;;;12.10;99.90;;;;;;5072308;28;20073;-48
2024/01/26 12:01:59;;;;;;;16.08;10.50;;;12.00;99.90;;;;;;5073904;28;20146;-50
2024/01/26 12:04:25;;;;;;;18.80;11.00;;;12.00;99.90;;;;;;5075053;28;20464;-49
2024/01/26 12:06:52;;;;;;;17.27;11.02;;;12.00;99.90;;;;;;5073357;28;20171;-54
2024/01/26 12:09:20;;;;;;;16.98;10.43;;;12.00;99.90;;;;;;5074174;28;20077;-52
2024/01/26 12:11:47;;;;;;;18.27;10.75;;;12.00;99.90;;;;;;5070357;28;20076;-50
2024/01/26 12:14:13;;;;;;;16.13;10.77;;;12.10;99.90;;;;;;5067373;28;20084;-52
2024/01/26 12:16:41;;;;;;;20.52;11.52;;;12.00;99.90;;;;;;5071549;28;20118;-53
2024/01/26 12:19:07;;;;;;;17.60;10.90;;;11.90;99.90;;;;;;5074779;28;20095;-51
2024/01/26 12:21:36;;;;;;;14.55;10.13;;;11.90;99.90;;;;;;5055770;28;20448;-53
2024/01/26 12:24:11;;;;;;;11.18;9.25;;;11.80;99.90;;;;;;5072484;28;20072;-52
2024/01/26 12:26:37;;;;;;;15.70;8.90;;;11.80;99.90;;;;;;5069922;28;20076;-50
2024/01/26 12:29:04;;;;;;;13.48;8.07;;;11.80;99.90;;;;;;5071675;28;20084;-52